sensor_id;sensor_type;location;lat;lon;timestamp;temperature;humidity
10314;DHT22;5202;49.138;10.090;2023-02-07T00:01:38;-1.30;99.90
10314;DHT22;5202;49.138;10.090;2023-02-07T00:04:06;-1.40;99.90
10314;DHT22;5202;49.138;10.090;2023-02-07T00:06:35;-1.40;99.90
10314;DHT22;5202;49.138;10.090;2023-02-07T00:09:07;-1.40;99.90
10314;DHT22;5202;49.138;10.090;2023-02-07T00:11:37;-1.50;99.90
10314;DHT22;5202;49.138;10.090;2023-02-07T00:14:08;-1.50;99.90
10314;DHT22;5202;49.138;10.090;2023-02-07T00:16:38;-1.60;99.90
10314;DHT22;5202;49.138;10.090;2023-02-07T00:19:07;-1.60;99.90
10314;DHT22;5202;49.138;10.090;2023-02-07T00:21:35;-1.70;99.90
10314;DHT22;5202;49.138;10.090;2023-02-07T00:24:04;-1.80;99.90
10314;DHT22;5202;49.138;10.090;2023-02-07T00:26:34;-1.80;99.90
10314;DHT22;5202;49.138;10.090;2023-02-07T00:29:03;-1.90;99.90
10314;DHT22;5202;49.138;10.090;2023-02-07T00:31:33;-1.90;99.90
10314;DHT22;5202;49.138;10.090;2023-02-07T00:34:04;-1.90;99.90
10314;DHT22;5202;49.138;10.090;2023-02-07T00:36:35;-1.90;99.90
10314;DHT22;5202;49.138;10.090;2023-02-07T00:39:05;-1.90;99.90
10314;DHT22;5202;49.138;10.090;2023-02-07T00:41:36;-1.90;99.90
10314;DHT22;5202;49.138;10.090;2023-02-07T00:44:05;-1.90;99.90
10314;DHT22;5202;49.138;10.090;2023-02-07T00:46:34;-1.90;99.90
10314;DHT22;5202;49.138;10.090;2023-02-07T00:49:04;-1.90;99.90
10314;DHT22;5202;49.138;10.090;2023-02-07T00:51:32;-1.90;99.90
10314;DHT22;5202;49.138;10.090;2023-02-07T00:54:01;-2.00;99.90
10314;DHT22;5202;49.138;10.090;2023-02-07T00:56:30;-2.00;99.90
10314;DHT22;5202;49.138;10.090;2023-02-07T00:59:00;-2.00;99.90
10314;DHT22;5202;49.138;10.090;2023-02-07T01:01:29;-2.10;99.90
10314;DHT22;5202;49.138;10.090;2023-02-07T01:03:58;-2.20;99.90
10314;DHT22;5202;49.138;10.090;2023-02-07T01:06:31;-2.20;99.90
10314;DHT22;5202;49.138;10.090;2023-02-07T01:09:04;-2.20;99.90
10314;DHT22;5202;49.138;10.090;2023-02-07T01:11:33;-2.30;99.90
10314;DHT22;5202;49.138;10.090;2023-02-07T01:14:03;-2.30;99.90
10314;DHT22;5202;49.138;10.090;2023-02-07T01:16:34;-2.40;99.90
10314;DHT22;5202;49.138;10.090;2023-02-07T01:19:04;-2.40;99.90
10314;DHT22;5202;49.138;10.090;2023-02-07T01:21:34;-2.40;99.90
10314;DHT22;5202;49.138;10.090;2023-02-07T01:24:04;-2.40;99.90
10314;DHT22;5202;49.138;10.090;2023-02-07T01:26:34;-2.40;99.90
10314;DHT22;5202;49.138;10.090;2023-02-07T01:29:04;-2.50;99.90
10314;DHT22;5202;49.138;10.090;2023-02-07T01:31:34;-2.50;99.90
10314;DHT22;5202;49.138;10.090;2023-02-07T01:34:02;-2.50;99.90
10314;DHT22;5202;49.138;10.090;2023-02-07T01:36:31;-2.60;99.90
10314;DHT22;5202;49.138;10.090;2023-02-07T01:39:00;-2.60;99.90
10314;DHT22;5202;49.138;10.090;2023-02-07T01:41:32;-2.70;99.90
10314;DHT22;5202;49.138;10.090;2023-02-07T01:44:04;-2.70;99.90
10314;DHT22;5202;49.138;10.090;2023-02-07T01:46:34;-2.80;99.90
10314;DHT22;5202;49.138;10.090;2023-02-07T01:49:06;-2.80;99.90
10314;DHT22;5202;49.138;10.090;2023-02-07T01:51:37;-2.80;99.90
10314;DHT22;5202;49.138;10.090;2023-02-07T01:54:11;-2.80;99.90
10314;DHT22;5202;49.138;10.090;2023-02-07T01:56:43;-2.80;99.90
10314;DHT22;5202;49.138;10.090;2023-02-07T01:59:15;-2.80;99.90
10314;DHT22;5202;49.138;10.090;2023-02-07T02:01:44;-2.80;99.90
10314;DHT22;5202;49.138;10.090;2023-02-07T02:04:13;-2.80;99.90
10314;DHT22;5202;49.138;10.090;2023-02-07T02:06:42;-2.70;99.90
10314;DHT22;5202;49.138;10.090;2023-02-07T02:09:12;-2.70;99.90
10314;DHT22;5202;49.138;10.090;2023-02-07T02:12:13;-2.70;99.90
10314;DHT22;5202;49.138;10.090;2023-02-07T02:15:11;-2.50;99.90
10314;DHT22;5202;49.138;10.090;2023-02-07T02:17:54;-2.50;99.90
10314;DHT22;5202;49.138;10.090;2023-02-07T02:24:01;-2.50;99.90
10314;DHT22;5202;49.138;10.090;2023-02-07T02:27:00;-2.40;99.90
10314;DHT22;5202;49.138;10.090;2023-02-07T02:30:01;-2.40;99.90
10314;DHT22;5202;49.138;10.090;2023-02-07T02:33:06;-2.40;99.90
10314;DHT22;5202;49.138;10.090;2023-02-07T02:35:44;-2.40;99.90
10314;DHT22;5202;49.138;10.090;2023-02-07T02:38:22;-2.50;99.90
10314;DHT22;5202;49.138;10.090;2023-02-07T02:40:56;-2.60;99.90
10314;DHT22;5202;49.138;10.090;2023-02-07T02:43:35;-2.70;99.90
10314;DHT22;5202;49.138;10.090;2023-02-07T02:46:08;-2.80;99.90
10314;DHT22;5202;49.138;10.090;2023-02-07T02:48:41;-2.80;99.90
10314;DHT22;5202;49.138;10.090;2023-02-07T02:51:11;-2.80;99.90
10314;DHT22;5202;49.138;10.090;2023-02-07T02:53:39;-2.80;99.90
10314;DHT22;5202;49.138;10.090;2023-02-07T02:56:16;-2.80;99.90
10314;DHT22;5202;49.138;10.090;2023-02-07T02:59:10;-2.80;99.90
10314;DHT22;5202;49.138;10.090;2023-02-07T03:01:53;-2.80;99.90
10314;DHT22;5202;49.138;10.090;2023-02-07T03:04:52;-2.80;99.90
10314;DHT22;5202;49.138;10.090;2023-02-07T03:07:40;-2.90;99.90
10314;DHT22;5202;49.138;10.090;2023-02-07T03:10:16;-2.90;99.90
10314;DHT22;5202;49.138;10.090;2023-02-07T03:12:57;-3.00;99.90
10314;DHT22;5202;49.138;10.090;2023-02-07T03:15:35;-2.90;99.90
10314;DHT22;5202;49.138;10.090;2023-02-07T03:18:16;-2.90;99.90
10314;DHT22;5202;49.138;10.090;2023-02-07T03:20:51;-2.80;99.90
10314;DHT22;5202;49.138;10.090;2023-02-07T03:23:22;-2.70;99.90
10314;DHT22;5202;49.138;10.090;2023-02-07T03:25:52;-2.70;99.90
10314;DHT22;5202;49.138;10.090;2023-02-07T03:28:23;-2.70;99.90
10314;DHT22;5202;49.138;10.090;2023-02-07T03:30:54;-2.70;99.90
10314;DHT22;5202;49.138;10.090;2023-02-07T03:33:24;-2.70;99.90
10314;DHT22;5202;49.138;10.090;2023-02-07T03:36:01;-2.70;99.90
10314;DHT22;5202;49.138;10.090;2023-02-07T03:38:34;-2.80;99.90
10314;DHT22;5202;49.138;10.090;2023-02-07T03:41:07;-2.80;99.90
10314;DHT22;5202;49.138;10.090;2023-02-07T03:43:41;-2.80;99.90
10314;DHT22;5202;49.138;10.090;2023-02-07T03:46:11;-2.90;99.90
10314;DHT22;5202;49.138;10.090;2023-02-07T03:48:39;-2.90;99.90
10314;DHT22;5202;49.138;10.090;2023-02-07T03:51:08;-3.00;99.90
10314;DHT22;5202;49.138;10.090;2023-02-07T03:53:37;-3.00;99.90
10314;DHT22;5202;49.138;10.090;2023-02-07T03:56:05;-3.00;99.90
10314;DHT22;5202;49.138;10.090;2023-02-07T03:58:34;-3.00;99.90
10314;DHT22;5202;49.138;10.090;2023-02-07T04:01:02;-3.00;99.90
10314;DHT22;5202;49.138;10.090;2023-02-07T04:03:31;-3.00;99.90
10314;DHT22;5202;49.138;10.090;2023-02-07T04:06:00;-3.00;99.90
10314;DHT22;5202;49.138;10.090;2023-02-07T04:08:30;-3.00;99.90
10314;DHT22;5202;49.138;10.090;2023-02-07T04:11:00;-3.00;99.90
10314;DHT22;5202;49.138;10.090;2023-02-07T04:13:29;-3.00;99.90
10314;DHT22;5202;49.138;10.090;2023-02-07T04:15:59;-3.00;99.90
10314;DHT22;5202;49.138;10.090;2023-02-07T04:18:28;-3.00;99.90
10314;DHT22;5202;49.138;10.090;2023-02-07T04:21:00;-3.10;99.80
10314;DHT22;5202;49.138;10.090;2023-02-07T04:23:30;-3.10;99.90
10314;DHT22;5202;49.138;10.090;2023-02-07T04:25:59;-3.20;99.90
10314;DHT22;5202;49.138;10.090;2023-02-07T04:28:28;-3.20;99.90
10314;DHT22;5202;49.138;10.090;2023-02-07T04:30:57;-3.20;99.90
10314;DHT22;5202;49.138;10.090;2023-02-07T04:33:25;-3.30;99.90
10314;DHT22;5202;49.138;10.090;2023-02-07T04:35:54;-3.30;99.90
10314;DHT22;5202;49.138;10.090;2023-02-07T04:38:24;-3.30;99.90
10314;DHT22;5202;49.138;10.090;2023-02-07T04:40:57;-3.30;99.90
10314;DHT22;5202;49.138;10.090;2023-02-07T04:43:26;-3.30;99.90
10314;DHT22;5202;49.138;10.090;2023-02-07T04:45:54;-3.30;99.90
10314;DHT22;5202;49.138;10.090;2023-02-07T04:48:23;-3.40;99.60
10314;DHT22;5202;49.138;10.090;2023-02-07T04:50:51;-3.50;99.80
10314;DHT22;5202;49.138;10.090;2023-02-07T04:53:19;-3.50;99.70
10314;DHT22;5202;49.138;10.090;2023-02-07T04:55:49;-3.50;99.60
10314;DHT22;5202;49.138;10.090;2023-02-07T04:58:19;-3.60;99.90
10314;DHT22;5202;49.138;10.090;2023-02-07T05:00:48;-3.60;99.80
10314;DHT22;5202;49.138;10.090;2023-02-07T05:03:17;-3.70;99.50
10314;DHT22;5202;49.138;10.090;2023-02-07T05:05:45;-3.70;99.20
10314;DHT22;5202;49.138;10.090;2023-02-07T05:08:13;-3.80;99.70
10314;DHT22;5202;49.138;10.090;2023-02-07T05:10:42;-3.90;99.90
10314;DHT22;5202;49.138;10.090;2023-02-07T05:13:10;-3.80;99.90
10314;DHT22;5202;49.138;10.090;2023-02-07T05:15:40;-3.70;99.90
10314;DHT22;5202;49.138;10.090;2023-02-07T05:18:09;-3.60;99.90
10314;DHT22;5202;49.138;10.090;2023-02-07T05:20:38;-3.50;99.90
10314;DHT22;5202;49.138;10.090;2023-02-07T05:23:06;-3.50;99.90
10314;DHT22;5202;49.138;10.090;2023-02-07T05:25:34;-3.50;99.70
10314;DHT22;5202;49.138;10.090;2023-02-07T05:28:03;-3.40;99.60
10314;DHT22;5202;49.138;10.090;2023-02-07T05:30:32;-3.40;99.50
10314;DHT22;5202;49.138;10.090;2023-02-07T05:33:01;-3.40;99.20
10314;DHT22;5202;49.138;10.090;2023-02-07T05:35:33;-3.50;99.00
10314;DHT22;5202;49.138;10.090;2023-02-07T05:38:03;-3.60;99.20
10314;DHT22;5202;49.138;10.090;2023-02-07T05:40:33;-3.70;99.70
10314;DHT22;5202;49.138;10.090;2023-02-07T05:43:02;-3.70;99.40
10314;DHT22;5202;49.138;10.090;2023-02-07T05:45:30;-3.70;99.50
10314;DHT22;5202;49.138;10.090;2023-02-07T05:48:00;-3.80;99.30
10314;DHT22;5202;49.138;10.090;2023-02-07T05:50:29;-4.00;99.40
10314;DHT22;5202;49.138;10.090;2023-02-07T05:53:04;-4.10;99.90
10314;DHT22;5202;49.138;10.090;2023-02-07T05:55:34;-4.10;99.90
10314;DHT22;5202;49.138;10.090;2023-02-07T05:58:03;-4.10;99.90
10314;DHT22;5202;49.138;10.090;2023-02-07T06:00:31;-4.00;99.80
10314;DHT22;5202;49.138;10.090;2023-02-07T06:03:01;-4.00;99.40
10314;DHT22;5202;49.138;10.090;2023-02-07T06:05:29;-3.90;99.70
10314;DHT22;5202;49.138;10.090;2023-02-07T06:07:59;-3.80;99.80
10314;DHT22;5202;49.138;10.090;2023-02-07T06:10:27;-3.70;99.70
10314;DHT22;5202;49.138;10.090;2023-02-07T06:12:55;-3.70;99.30
10314;DHT22;5202;49.138;10.090;2023-02-07T06:15:24;-3.70;99.20
10314;DHT22;5202;49.138;10.090;2023-02-07T06:17:52;-3.70;99.00
10314;DHT22;5202;49.138;10.090;2023-02-07T06:20:22;-3.70;99.00
10314;DHT22;5202;49.138;10.090;2023-02-07T06:22:50;-3.80;99.00
10314;DHT22;5202;49.138;10.090;2023-02-07T06:25:18;-3.80;99.00
10314;DHT22;5202;49.138;10.090;2023-02-07T06:27:47;-3.90;99.50
10314;DHT22;5202;49.138;10.090;2023-02-07T06:30:16;-3.80;99.90
10314;DHT22;5202;49.138;10.090;2023-02-07T06:32:45;-3.80;99.40
10314;DHT22;5202;49.138;10.090;2023-02-07T06:35:14;-3.80;99.30
10314;DHT22;5202;49.138;10.090;2023-02-07T06:37:44;-3.80;99.30
10314;DHT22;5202;49.138;10.090;2023-02-07T06:40:12;-3.80;98.90
10314;DHT22;5202;49.138;10.090;2023-02-07T06:42:40;-3.80;98.90
10314;DHT22;5202;49.138;10.090;2023-02-07T06:45:09;-3.80;99.20
10314;DHT22;5202;49.138;10.090;2023-02-07T06:47:37;-3.90;98.80
10314;DHT22;5202;49.138;10.090;2023-02-07T06:50:06;-3.90;98.80
10314;DHT22;5202;49.138;10.090;2023-02-07T06:52:35;-3.90;98.60
10314;DHT22;5202;49.138;10.090;2023-02-07T06:55:05;-3.80;98.80
10314;DHT22;5202;49.138;10.090;2023-02-07T06:57:35;-3.80;98.90
10314;DHT22;5202;49.138;10.090;2023-02-07T07:00:04;-3.70;98.90
10314;DHT22;5202;49.138;10.090;2023-02-07T07:02:33;-3.60;98.60
10314;DHT22;5202;49.138;10.090;2023-02-07T07:05:26;-3.60;98.40
10314;DHT22;5202;49.138;10.090;2023-02-07T07:07:55;-3.50;98.10
10314;DHT22;5202;49.138;10.090;2023-02-07T07:10:25;-3.50;98.00
10314;DHT22;5202;49.138;10.090;2023-02-07T07:12:53;-3.50;98.10
10314;DHT22;5202;49.138;10.090;2023-02-07T07:15:21;-3.50;98.10
10314;DHT22;5202;49.138;10.090;2023-02-07T07:17:49;-3.50;98.30
10314;DHT22;5202;49.138;10.090;2023-02-07T07:20:18;-3.50;98.20
10314;DHT22;5202;49.138;10.090;2023-02-07T07:22:47;-3.50;98.30
10314;DHT22;5202;49.138;10.090;2023-02-07T07:25:15;-3.50;98.60
10314;DHT22;5202;49.138;10.090;2023-02-07T07:27:45;-3.60;98.60
10314;DHT22;5202;49.138;10.090;2023-02-07T07:32:42;-3.40;98.70
10314;DHT22;5202;49.138;10.090;2023-02-07T07:35:10;-3.40;98.50
10314;DHT22;5202;49.138;10.090;2023-02-07T07:37:38;-3.40;98.80
10314;DHT22;5202;49.138;10.090;2023-02-07T07:40:08;-3.30;98.60
10314;DHT22;5202;49.138;10.090;2023-02-07T07:42:37;-3.30;98.40
10314;DHT22;5202;49.138;10.090;2023-02-07T07:45:29;-3.20;98.40
10314;DHT22;5202;49.138;10.090;2023-02-07T07:47:58;-3.10;98.40
10314;DHT22;5202;49.138;10.090;2023-02-07T07:50:26;-3.00;98.00
10314;DHT22;5202;49.138;10.090;2023-02-07T07:52:55;-2.90;97.90
10314;DHT22;5202;49.138;10.090;2023-02-07T07:55:23;-2.90;98.00
10314;DHT22;5202;49.138;10.090;2023-02-07T07:57:52;-2.80;97.80
10314;DHT22;5202;49.138;10.090;2023-02-07T08:00:20;-2.70;97.30
10314;DHT22;5202;49.138;10.090;2023-02-07T08:02:50;-2.70;97.50
10314;DHT22;5202;49.138;10.090;2023-02-07T08:05:18;-2.60;97.40
10314;DHT22;5202;49.138;10.090;2023-02-07T08:07:46;-2.50;97.40
10314;DHT22;5202;49.138;10.090;2023-02-07T08:10:15;-2.40;97.40
10314;DHT22;5202;49.138;10.090;2023-02-07T08:12:43;-2.30;97.30
10314;DHT22;5202;49.138;10.090;2023-02-07T08:15:12;-2.30;97.30
10314;DHT22;5202;49.138;10.090;2023-02-07T08:17:41;-2.30;97.10
10314;DHT22;5202;49.138;10.090;2023-02-07T08:20:11;-2.20;97.40
10314;DHT22;5202;49.138;10.090;2023-02-07T08:22:39;-2.30;97.50
10314;DHT22;5202;49.138;10.090;2023-02-07T08:25:08;-2.20;97.80
10314;DHT22;5202;49.138;10.090;2023-02-07T08:27:36;-2.20;97.50
10314;DHT22;5202;49.138;10.090;2023-02-07T08:30:07;-2.30;97.20
10314;DHT22;5202;49.138;10.090;2023-02-07T08:32:36;-2.20;97.10
10314;DHT22;5202;49.138;10.090;2023-02-07T08:35:06;-2.20;96.90
10314;DHT22;5202;49.138;10.090;2023-02-07T08:37:38;-2.20;97.00
10314;DHT22;5202;49.138;10.090;2023-02-07T08:40:07;-2.10;97.20
10314;DHT22;5202;49.138;10.090;2023-02-07T08:42:36;-2.00;97.20
10314;DHT22;5202;49.138;10.090;2023-02-07T08:45:05;-1.90;97.10
10314;DHT22;5202;49.138;10.090;2023-02-07T08:47:34;-1.80;97.20
10314;DHT22;5202;49.138;10.090;2023-02-07T08:50:02;-1.70;96.80
10314;DHT22;5202;49.138;10.090;2023-02-07T08:52:31;-1.60;96.70
10314;DHT22;5202;49.138;10.090;2023-02-07T08:55:01;-1.60;96.30
10314;DHT22;5202;49.138;10.090;2023-02-07T08:57:29;-1.60;96.00
10314;DHT22;5202;49.138;10.090;2023-02-07T08:59:58;-1.60;96.50
10314;DHT22;5202;49.138;10.090;2023-02-07T09:02:27;-1.60;96.30
10314;DHT22;5202;49.138;10.090;2023-02-07T09:04:55;-1.60;96.80
10314;DHT22;5202;49.138;10.090;2023-02-07T09:07:24;-1.60;97.00
10314;DHT22;5202;49.138;10.090;2023-02-07T09:09:52;-1.50;97.20
10314;DHT22;5202;49.138;10.090;2023-02-07T09:12:22;-1.40;97.10
10314;DHT22;5202;49.138;10.090;2023-02-07T09:14:50;-1.40;96.60
10314;DHT22;5202;49.138;10.090;2023-02-07T09:17:19;-1.30;97.30
10314;DHT22;5202;49.138;10.090;2023-02-07T09:19:47;-1.20;97.10
10314;DHT22;5202;49.138;10.090;2023-02-07T09:22:15;-1.10;96.40
10314;DHT22;5202;49.138;10.090;2023-02-07T09:24:45;-1.00;96.00
10314;DHT22;5202;49.138;10.090;2023-02-07T09:27:14;-1.10;95.80
10314;DHT22;5202;49.138;10.090;2023-02-07T09:29:43;-1.00;96.10
10314;DHT22;5202;49.138;10.090;2023-02-07T09:32:11;-1.00;95.60
10314;DHT22;5202;49.138;10.090;2023-02-07T09:34:40;-0.90;96.20
10314;DHT22;5202;49.138;10.090;2023-02-07T09:37:08;-0.80;96.20
10314;DHT22;5202;49.138;10.090;2023-02-07T09:39:36;-0.70;95.40
10314;DHT22;5202;49.138;10.090;2023-02-07T09:42:16;-0.50;95.30
10314;DHT22;5202;49.138;10.090;2023-02-07T09:44:56;-0.50;94.50
10314;DHT22;5202;49.138;10.090;2023-02-07T09:47:29;-0.40;94.70
10314;DHT22;5202;49.138;10.090;2023-02-07T09:50:01;-0.30;94.20
10314;DHT22;5202;49.138;10.090;2023-02-07T09:52:34;-0.10;93.70
10314;DHT22;5202;49.138;10.090;2023-02-07T09:55:07;0.10;94.30
10314;DHT22;5202;49.138;10.090;2023-02-07T09:57:42;0.20;93.80
10314;DHT22;5202;49.138;10.090;2023-02-07T10:00:22;0.30;94.10
10314;DHT22;5202;49.138;10.090;2023-02-07T10:02:54;0.30;93.70
10314;DHT22;5202;49.138;10.090;2023-02-07T10:05:28;0.50;94.10
10314;DHT22;5202;49.138;10.090;2023-02-07T10:08:01;0.50;93.50
10314;DHT22;5202;49.138;10.090;2023-02-07T10:10:35;0.60;93.10
10314;DHT22;5202;49.138;10.090;2023-02-07T10:13:31;0.70;93.10
10314;DHT22;5202;49.138;10.090;2023-02-07T10:16:21;0.80;93.00
10314;DHT22;5202;49.138;10.090;2023-02-07T10:19:01;0.90;92.70
10314;DHT22;5202;49.138;10.090;2023-02-07T10:21:38;0.80;92.00
10314;DHT22;5202;49.138;10.090;2023-02-07T10:24:32;0.80;91.90
10314;DHT22;5202;49.138;10.090;2023-02-07T10:27:18;0.80;92.30
10314;DHT22;5202;49.138;10.090;2023-02-07T10:29:55;0.70;91.70
10314;DHT22;5202;49.138;10.090;2023-02-07T10:32:33;0.90;91.50
10314;DHT22;5202;49.138;10.090;2023-02-07T10:35:13;1.00;91.30
10314;DHT22;5202;49.138;10.090;2023-02-07T10:37:45;1.00;91.20
10314;DHT22;5202;49.138;10.090;2023-02-07T10:40:18;1.10;90.90
10314;DHT22;5202;49.138;10.090;2023-02-07T10:42:55;1.30;91.00
10314;DHT22;5202;49.138;10.090;2023-02-07T10:45:26;1.50;90.60
10314;DHT22;5202;49.138;10.090;2023-02-07T10:47:56;1.50;88.50
10314;DHT22;5202;49.138;10.090;2023-02-07T10:50:25;1.60;89.50
10314;DHT22;5202;49.138;10.090;2023-02-07T10:53:07;1.60;87.20
10314;DHT22;5202;49.138;10.090;2023-02-07T10:55:38;1.50;87.50
10314;DHT22;5202;49.138;10.090;2023-02-07T10:58:14;1.50;87.10
10314;DHT22;5202;49.138;10.090;2023-02-07T11:00:50;1.60;88.70
10314;DHT22;5202;49.138;10.090;2023-02-07T11:03:22;1.80;87.80
10314;DHT22;5202;49.138;10.090;2023-02-07T11:05:56;1.90;86.80
10314;DHT22;5202;49.138;10.090;2023-02-07T11:08:29;1.90;85.80
10314;DHT22;5202;49.138;10.090;2023-02-07T11:11:22;2.00;86.80
10314;DHT22;5202;49.138;10.090;2023-02-07T11:13:54;2.10;85.80
10314;DHT22;5202;49.138;10.090;2023-02-07T11:16:30;2.20;86.50
10314;DHT22;5202;49.138;10.090;2023-02-07T11:19:02;2.20;85.50
10314;DHT22;5202;49.138;10.090;2023-02-07T11:21:34;2.20;84.40
10314;DHT22;5202;49.138;10.090;2023-02-07T11:24:11;2.30;85.00
10314;DHT22;5202;49.138;10.090;2023-02-07T11:26:52;2.50;83.50
10314;DHT22;5202;49.138;10.090;2023-02-07T11:29:24;2.60;83.50
10314;DHT22;5202;49.138;10.090;2023-02-07T11:31:54;2.90;83.90
10314;DHT22;5202;49.138;10.090;2023-02-07T11:34:40;3.10;80.80
10314;DHT22;5202;49.138;10.090;2023-02-07T11:37:24;3.40;80.40
10314;DHT22;5202;49.138;10.090;2023-02-07T11:39:55;3.60;78.90
10314;DHT22;5202;49.138;10.090;2023-02-07T11:42:30;3.80;78.60
10314;DHT22;5202;49.138;10.090;2023-02-07T11:45:03;4.00;79.80
10314;DHT22;5202;49.138;10.090;2023-02-07T11:47:33;4.20;78.70
10314;DHT22;5202;49.138;10.090;2023-02-07T11:50:06;4.40;78.50
10314;DHT22;5202;49.138;10.090;2023-02-07T11:52:37;4.50;76.70
10314;DHT22;5202;49.138;10.090;2023-02-07T11:55:20;4.60;75.10
10314;DHT22;5202;49.138;10.090;2023-02-07T11:57:49;4.70;75.40
10314;DHT22;5202;49.138;10.090;2023-02-07T12:00:21;4.80;72.10
10314;DHT22;5202;49.138;10.090;2023-02-07T12:02:58;4.90;71.70
10314;DHT22;5202;49.138;10.090;2023-02-07T12:05:34;4.90;70.30
10314;DHT22;5202;49.138;10.090;2023-02-07T12:08:10;5.00;71.60
10314;DHT22;5202;49.138;10.090;2023-02-07T12:10:43;5.00;70.20
10314;DHT22;5202;49.138;10.090;2023-02-07T12:13:16;5.10;72.50
10314;DHT22;5202;49.138;10.090;2023-02-07T12:15:49;5.10;71.10
10314;DHT22;5202;49.138;10.090;2023-02-07T12:18:25;5.10;72.00
10314;DHT22;5202;49.138;10.090;2023-02-07T12:21:03;5.10;68.30
10314;DHT22;5202;49.138;10.090;2023-02-07T12:23:38;5.30;68.90
10314;DHT22;5202;49.138;10.090;2023-02-07T12:26:18;5.40;68.10
10314;DHT22;5202;49.138;10.090;2023-02-07T12:28:54;5.50;69.40
10314;DHT22;5202;49.138;10.090;2023-02-07T12:31:48;5.60;68.60
10314;DHT22;5202;49.138;10.090;2023-02-07T12:34:28;5.60;67.90
10314;DHT22;5202;49.138;10.090;2023-02-07T12:37:04;5.70;68.00
10314;DHT22;5202;49.138;10.090;2023-02-07T12:39:43;5.90;69.40
10314;DHT22;5202;49.138;10.090;2023-02-07T12:42:23;6.00;65.20
10314;DHT22;5202;49.138;10.090;2023-02-07T12:44:59;6.10;68.00
10314;DHT22;5202;49.138;10.090;2023-02-07T12:47:39;6.20;66.70
10314;DHT22;5202;49.138;10.090;2023-02-07T12:50:18;6.20;65.10
10314;DHT22;5202;49.138;10.090;2023-02-07T12:53:02;6.40;66.70
10314;DHT22;5202;49.138;10.090;2023-02-07T12:55:45;6.50;66.00
10314;DHT22;5202;49.138;10.090;2023-02-07T12:58:31;6.60;66.10
10314;DHT22;5202;49.138;10.090;2023-02-07T13:01:12;6.80;64.40
10314;DHT22;5202;49.138;10.090;2023-02-07T13:04:07;6.80;63.20
10314;DHT22;5202;49.138;10.090;2023-02-07T13:07:30;7.00;61.00
10314;DHT22;5202;49.138;10.090;2023-02-07T13:10:12;7.10;61.30
10314;DHT22;5202;49.138;10.090;2023-02-07T13:12:52;7.30;61.60
10314;DHT22;5202;49.138;10.090;2023-02-07T13:15:30;7.40;60.70
10314;DHT22;5202;49.138;10.090;2023-02-07T13:18:06;7.60;60.40
10314;DHT22;5202;49.138;10.090;2023-02-07T13:20:53;7.70;59.10
10314;DHT22;5202;49.138;10.090;2023-02-07T13:23:27;8.00;60.00
10314;DHT22;5202;49.138;10.090;2023-02-07T13:26:02;8.00;58.70
10314;DHT22;5202;49.138;10.090;2023-02-07T13:28:39;8.30;57.30
10314;DHT22;5202;49.138;10.090;2023-02-07T13:31:13;8.40;57.80
10314;DHT22;5202;49.138;10.090;2023-02-07T13:33:44;8.50;58.00
10314;DHT22;5202;49.138;10.090;2023-02-07T13:36:23;8.70;58.60
10314;DHT22;5202;49.138;10.090;2023-02-07T13:39:12;8.80;57.70
10314;DHT22;5202;49.138;10.090;2023-02-07T13:41:58;9.00;56.90
10314;DHT22;5202;49.138;10.090;2023-02-07T13:44:37;9.10;55.00
10314;DHT22;5202;49.138;10.090;2023-02-07T13:47:30;9.30;55.80
10314;DHT22;5202;49.138;10.090;2023-02-07T13:50:20;9.50;57.90
10314;DHT22;5202;49.138;10.090;2023-02-07T13:53:19;9.60;57.70
10314;DHT22;5202;49.138;10.090;2023-02-07T13:55:59;9.70;58.10
10314;DHT22;5202;49.138;10.090;2023-02-07T13:58:52;9.80;57.50
10314;DHT22;5202;49.138;10.090;2023-02-07T14:01:47;10.00;55.70
10314;DHT22;5202;49.138;10.090;2023-02-07T14:04:17;10.20;56.80
10314;DHT22;5202;49.138;10.090;2023-02-07T14:06:56;10.30;55.50
10314;DHT22;5202;49.138;10.090;2023-02-07T14:09:32;10.50;56.00
10314;DHT22;5202;49.138;10.090;2023-02-07T14:12:04;10.50;57.70
10314;DHT22;5202;49.138;10.090;2023-02-07T14:14:37;10.70;58.50
10314;DHT22;5202;49.138;10.090;2023-02-07T14:17:07;10.80;56.70
10314;DHT22;5202;49.138;10.090;2023-02-07T14:19:55;10.90;55.00
10314;DHT22;5202;49.138;10.090;2023-02-07T14:22:26;10.90;56.10
10314;DHT22;5202;49.138;10.090;2023-02-07T14:25:22;10.80;55.20
10314;DHT22;5202;49.138;10.090;2023-02-07T14:28:19;11.00;55.50
10314;DHT22;5202;49.138;10.090;2023-02-07T14:31:10;11.10;54.90
10314;DHT22;5202;49.138;10.090;2023-02-07T14:34:10;11.40;53.10
10314;DHT22;5202;49.138;10.090;2023-02-07T14:36:40;11.70;52.70
10314;DHT22;5202;49.138;10.090;2023-02-07T14:39:34;11.90;50.40
10314;DHT22;5202;49.138;10.090;2023-02-07T14:42:10;11.90;50.60
10314;DHT22;5202;49.138;10.090;2023-02-07T14:44:44;11.60;51.70
10314;DHT22;5202;49.138;10.090;2023-02-07T14:47:20;11.30;49.10
10314;DHT22;5202;49.138;10.090;2023-02-07T14:49:53;11.10;49.70
10314;DHT22;5202;49.138;10.090;2023-02-07T14:52:25;11.10;50.00
10314;DHT22;5202;49.138;10.090;2023-02-07T14:54:58;11.10;52.10
10314;DHT22;5202;49.138;10.090;2023-02-07T14:57:35;11.00;51.20
10314;DHT22;5202;49.138;10.090;2023-02-07T15:00:21;11.20;48.90
10314;DHT22;5202;49.138;10.090;2023-02-07T15:02:56;11.20;47.80
10314;DHT22;5202;49.138;10.090;2023-02-07T15:06:00;11.10;49.80
10314;DHT22;5202;49.138;10.090;2023-02-07T15:08:30;11.00;49.10
10314;DHT22;5202;49.138;10.090;2023-02-07T15:11:03;10.90;49.30
10314;DHT22;5202;49.138;10.090;2023-02-07T15:13:35;10.90;48.90
10314;DHT22;5202;49.138;10.090;2023-02-07T15:16:06;11.00;49.90
10314;DHT22;5202;49.138;10.090;2023-02-07T15:18:40;11.10;48.70
10314;DHT22;5202;49.138;10.090;2023-02-07T15:21:16;11.10;47.90
10314;DHT22;5202;49.138;10.090;2023-02-07T15:23:48;11.10;48.00
10314;DHT22;5202;49.138;10.090;2023-02-07T15:26:19;11.30;47.80
10314;DHT22;5202;49.138;10.090;2023-02-07T15:28:56;11.40;48.90
10314;DHT22;5202;49.138;10.090;2023-02-07T15:31:26;11.40;48.50
10314;DHT22;5202;49.138;10.090;2023-02-07T15:33:55;11.30;48.80
10314;DHT22;5202;49.138;10.090;2023-02-07T15:36:31;11.30;48.60
10314;DHT22;5202;49.138;10.090;2023-02-07T15:39:02;11.30;48.10
10314;DHT22;5202;49.138;10.090;2023-02-07T15:41:32;11.20;48.80
10314;DHT22;5202;49.138;10.090;2023-02-07T15:44:02;11.10;48.20
10314;DHT22;5202;49.138;10.090;2023-02-07T15:46:45;11.10;49.10
10314;DHT22;5202;49.138;10.090;2023-02-07T15:49:31;10.90;48.20
10314;DHT22;5202;49.138;10.090;2023-02-07T15:52:12;10.60;48.90
10314;DHT22;5202;49.138;10.090;2023-02-07T15:54:45;9.80;52.60
10314;DHT22;5202;49.138;10.090;2023-02-07T15:57:21;9.00;53.40
10314;DHT22;5202;49.138;10.090;2023-02-07T15:59:51;8.30;53.00
10314;DHT22;5202;49.138;10.090;2023-02-07T16:02:24;7.40;55.20
10314;DHT22;5202;49.138;10.090;2023-02-07T16:04:55;6.90;58.30
10314;DHT22;5202;49.138;10.090;2023-02-07T16:07:26;6.40;59.10
10314;DHT22;5202;49.138;10.090;2023-02-07T16:09:55;5.90;59.80
10314;DHT22;5202;49.138;10.090;2023-02-07T16:12:44;5.60;61.30
10314;DHT22;5202;49.138;10.090;2023-02-07T16:15:24;5.20;62.40
10314;DHT22;5202;49.138;10.090;2023-02-07T16:17:55;5.00;62.90
10314;DHT22;5202;49.138;10.090;2023-02-07T16:20:24;4.80;63.30
10314;DHT22;5202;49.138;10.090;2023-02-07T16:22:56;4.60;64.70